KJAX

Jacksonville International Airport

Jacksonville, Florida, USA
METAR KJAX 212256Z 15004KT 10SM FEW045 FEW090 BKN150 BKN250 27/24 A3004 RMK AO2 SLP172 T02670244
Observed Flight Rules
Aug-21 @ 22:56 UTC (49 minutes ago) Visual Flight Rules
Wind Visibility Clouds
150° at 4 knots 10 miles
  • Few at 4,500' AGL
  • Few at 9,000' AGL
  • Broken at 15,000' AGL
  • Broken at 25,000' AGL
Temperatures Readings
Current 27°C / 81°F
Dewpoint 24°C / 75°F
Humidity 84%
Altimeter 30.04" Hg
Pressure 1017.2 hPa
Elevation 10
METAR KJAX 212256Z 15004KT 10SM FEW045 FEW090 BKN150 BKN250 27/24 A3004 RMK AO2 SLP172 T02670244
Observed Flight Rules
Aug-21 @ 22:56 UTC
(49 minutes ago)
VFR
Wind Visibility
150° at 4 knots 10 miles
Clouds
  • Few at 4,500' AGL
  • Few at 9,000' AGL
  • Broken at 15,000' AGL
  • Broken at 25,000' AGL
Temperature Dewpoint
27°C / 81°F 24°C / 75°F
Humidity Altimeter Pressure
84% 30.04" Hg 1017.2 hPa